Terminal Aerodrome Forecast
Issued by NWS

Home | Current Version | Previous Version | Text Only | Print | Product List | Glossary On
Versions: 1 2 3 4 5 6 7 8 9 10 11 12 13 14 15 16 17 18 19 20
000
FTUS43 KLSX 280500
TAFCPS
TAF
KCPS 280520Z 2806/2906 VRB03KT P6SM SCT120 BKN250
      TEMPO 2808/2812 3SM BR
     FM281600 12006KT P6SM SCT040 BKN250
     FM282000 13007KT P6SM VCTS SCT045CB BKN120
     FM290100 12005KT P6SM SCT120 BKN250=

USA.gov is the U.S. government's official web portal to all federal, state and local government web resources and services.